Leckrone, Pennsylvania
Current Conditions -  °F | °C
As of 2:53 PM on Monday 22 Dec 2014 (Local Time) from KMGW Reporting Station
Overcast Overcast  
Wind Chill: 41°   Ceiling: 6500
Heat Index: 45°   Visibility: 10mi
Dew Point: 28°   Wind: 8mph
Humidity: 52%   Direction: 110°ESE
Pressure: 29.99"   Gusts: NA
Location:  39.86°N, 79.87°W
Report Text: KMGW 221953Z 11007KT 10SM OVC065 07/M02 A2999 RMK AO2 SLP162 T00721022
Loading
Personal Weather Stations






























Interactive Weather Map New forecast layout! Learn more

10-Day Weather Forecast

Advertisements
Track Severe Weather on mobile